You are not logged in, Click here to log in
拉佛罗里达机场LSC / SCSE 智利拉塞勒那
ICAO: SCSE Country: 智利拉塞勒那
Latitude: -29.9162 Longitude: -71.1995
Total Arrivals: 1 Total Departures: 1
Latest Arrival: LA1250 (SCFA-SCSE)Stone. Chang Latest Departure: H2164 (SCSE-SCFA)Stone. Chang
Scenery:
METAR : SCSE 092100Z 30009KT 9999 FEW020 17/11 Q1015

拉佛罗里达机场LSC

You are accessing this site from IP address 35.170.81.210. Virtual Airline. CMS by phpVMS.Website designed by Zumeweb and edited by Theo Bearman.
There is 0 User(s) Online: | and 5 Guest(s) Online.
All information on this site is for fight simulation purposes only. This site is for flight logging for pilots of Virtual Airline&模擬飛行論壇 FlySim only.